sensor_id;sensor_type;location;lat;lon;timestamp;P1;durP1;ratioP1;P2;durP2;ratioP2
25667;SDS011;18003;-33.830;151.202;2023-04-03T00:00:29;5.57;;;2.80;;
25667;SDS011;18003;-33.830;151.202;2023-04-03T00:02:59;5.42;;;2.40;;
25667;SDS011;18003;-33.830;151.202;2023-04-03T00:05:29;5.30;;;2.90;;
25667;SDS011;18003;-33.830;151.202;2023-04-03T00:07:59;7.30;;;2.90;;
25667;SDS011;18003;-33.830;151.202;2023-04-03T00:10:31;4.03;;;2.50;;
25667;SDS011;18003;-33.830;151.202;2023-04-03T00:13:01;5.53;;;2.67;;
25667;SDS011;18003;-33.830;151.202;2023-04-03T00:15:31;5.53;;;2.55;;
25667;SDS011;18003;-33.830;151.202;2023-04-03T00:18:02;5.85;;;2.58;;
25667;SDS011;18003;-33.830;151.202;2023-04-03T00:20:32;7.05;;;2.58;;
25667;SDS011;18003;-33.830;151.202;2023-04-03T00:23:03;4.47;;;2.30;;
25667;SDS011;18003;-33.830;151.202;2023-04-03T00:25:33;5.72;;;2.60;;
25667;SDS011;18003;-33.830;151.202;2023-04-03T00:28:04;5.17;;;2.70;;
25667;SDS011;18003;-33.830;151.202;2023-04-03T00:30:34;8.08;;;3.02;;
25667;SDS011;18003;-33.830;151.202;2023-04-03T00:33:04;4.22;;;2.30;;
25667;SDS011;18003;-33.830;151.202;2023-04-03T00:35:34;5.08;;;2.70;;
25667;SDS011;18003;-33.830;151.202;2023-04-03T00:38:04;5.28;;;2.87;;
25667;SDS011;18003;-33.830;151.202;2023-04-03T00:40:35;6.78;;;2.77;;
25667;SDS011;18003;-33.830;151.202;2023-04-03T00:43:23;7.92;;;3.15;;
25667;SDS011;18003;-33.830;151.202;2023-04-03T00:45:51;4.12;;;2.42;;
25667;SDS011;18003;-33.830;151.202;2023-04-03T00:48:30;7.08;;;2.40;;
25667;SDS011;18003;-33.830;151.202;2023-04-03T00:50:57;6.80;;;2.95;;
25667;SDS011;18003;-33.830;151.202;2023-04-03T00:53:31;6.28;;;2.50;;
25667;SDS011;18003;-33.830;151.202;2023-04-03T00:56:06;4.12;;;2.87;;
25667;SDS011;18003;-33.830;151.202;2023-04-03T00:58:41;6.22;;;2.30;;
25667;SDS011;18003;-33.830;151.202;2023-04-03T01:01:18;5.08;;;2.35;;
25667;SDS011;18003;-33.830;151.202;2023-04-03T01:03:49;4.40;;;2.22;;
25667;SDS011;18003;-33.830;151.202;2023-04-03T01:06:20;5.05;;;1.95;;
25667;SDS011;18003;-33.830;151.202;2023-04-03T01:08:51;4.62;;;1.92;;
25667;SDS011;18003;-33.830;151.202;2023-04-03T01:11:22;6.08;;;2.42;;
25667;SDS011;18003;-33.830;151.202;2023-04-03T01:13:52;4.53;;;2.15;;
25667;SDS011;18003;-33.830;151.202;2023-04-03T01:16:22;4.17;;;1.90;;
25667;SDS011;18003;-33.830;151.202;2023-04-03T01:18:53;7.00;;;2.27;;
25667;SDS011;18003;-33.830;151.202;2023-04-03T01:24:33;4.08;;;2.20;;
25667;SDS011;18003;-33.830;151.202;2023-04-03T01:27:05;3.90;;;2.00;;
25667;SDS011;18003;-33.830;151.202;2023-04-03T01:29:38;5.33;;;2.10;;
25667;SDS011;18003;-33.830;151.202;2023-04-03T01:32:10;3.83;;;2.00;;
25667;SDS011;18003;-33.830;151.202;2023-04-03T01:34:40;5.53;;;1.95;;
25667;SDS011;18003;-33.830;151.202;2023-04-03T01:37:10;7.12;;;2.45;;
25667;SDS011;18003;-33.830;151.202;2023-04-03T01:39:40;4.65;;;2.20;;
25667;SDS011;18003;-33.830;151.202;2023-04-03T01:42:10;5.35;;;2.10;;
25667;SDS011;18003;-33.830;151.202;2023-04-03T01:44:40;5.25;;;1.80;;
25667;SDS011;18003;-33.830;151.202;2023-04-03T01:47:11;5.35;;;2.10;;
25667;SDS011;18003;-33.830;151.202;2023-04-03T01:49:41;3.30;;;1.70;;
25667;SDS011;18003;-33.830;151.202;2023-04-03T01:52:11;5.85;;;2.22;;
25667;SDS011;18003;-33.830;151.202;2023-04-03T01:54:41;5.85;;;2.20;;
25667;SDS011;18003;-33.830;151.202;2023-04-03T01:57:11;4.67;;;1.72;;
25667;SDS011;18003;-33.830;151.202;2023-04-03T01:59:41;7.17;;;2.00;;
25667;SDS011;18003;-33.830;151.202;2023-04-03T02:02:11;7.55;;;1.85;;
25667;SDS011;18003;-33.830;151.202;2023-04-03T02:04:41;6.22;;;2.00;;
25667;SDS011;18003;-33.830;151.202;2023-04-03T02:07:11;6.25;;;1.77;;
25667;SDS011;18003;-33.830;151.202;2023-04-03T02:09:42;2.72;;;1.70;;
25667;SDS011;18003;-33.830;151.202;2023-04-03T02:12:12;6.00;;;1.92;;
25667;SDS011;18003;-33.830;151.202;2023-04-03T02:14:42;6.92;;;1.82;;
25667;SDS011;18003;-33.830;151.202;2023-04-03T02:17:13;6.60;;;2.15;;
25667;SDS011;18003;-33.830;151.202;2023-04-03T02:19:44;4.55;;;1.92;;
25667;SDS011;18003;-33.830;151.202;2023-04-03T02:22:14;6.62;;;2.00;;
25667;SDS011;18003;-33.830;151.202;2023-04-03T02:24:44;4.20;;;1.70;;
25667;SDS011;18003;-33.830;151.202;2023-04-03T02:27:14;5.72;;;1.72;;
25667;SDS011;18003;-33.830;151.202;2023-04-03T02:29:44;5.58;;;1.70;;
25667;SDS011;18003;-33.830;151.202;2023-04-03T02:32:14;5.67;;;1.82;;
25667;SDS011;18003;-33.830;151.202;2023-04-03T02:34:44;5.45;;;1.65;;
25667;SDS011;18003;-33.830;151.202;2023-04-03T02:37:14;7.12;;;1.82;;
25667;SDS011;18003;-33.830;151.202;2023-04-03T02:39:44;6.92;;;2.10;;
25667;SDS011;18003;-33.830;151.202;2023-04-03T02:42:14;5.67;;;1.92;;
25667;SDS011;18003;-33.830;151.202;2023-04-03T02:44:44;7.47;;;1.90;;
25667;SDS011;18003;-33.830;151.202;2023-04-03T02:47:14;4.85;;;2.00;;
25667;SDS011;18003;-33.830;151.202;2023-04-03T02:49:44;6.72;;;1.90;;
25667;SDS011;18003;-33.830;151.202;2023-04-03T02:52:14;4.37;;;1.92;;
25667;SDS011;18003;-33.830;151.202;2023-04-03T02:57:20;9.35;;;2.10;;
25667;SDS011;18003;-33.830;151.202;2023-04-03T02:59:50;5.55;;;1.92;;
25667;SDS011;18003;-33.830;151.202;2023-04-03T03:02:20;4.95;;;1.60;;
25667;SDS011;18003;-33.830;151.202;2023-04-03T03:04:50;6.20;;;2.00;;
25667;SDS011;18003;-33.830;151.202;2023-04-03T03:07:26;4.70;;;1.62;;
25667;SDS011;18003;-33.830;151.202;2023-04-03T03:12:21;6.33;;;1.92;;
25667;SDS011;18003;-33.830;151.202;2023-04-03T03:14:51;6.17;;;2.02;;
25667;SDS011;18003;-33.830;151.202;2023-04-03T03:17:21;4.08;;;1.60;;
25667;SDS011;18003;-33.830;151.202;2023-04-03T03:19:51;6.08;;;1.90;;
25667;SDS011;18003;-33.830;151.202;2023-04-03T03:22:21;9.85;;;2.17;;
25667;SDS011;18003;-33.830;151.202;2023-04-03T03:24:51;5.08;;;1.50;;
25667;SDS011;18003;-33.830;151.202;2023-04-03T03:27:21;6.87;;;1.67;;
25667;SDS011;18003;-33.830;151.202;2023-04-03T03:29:51;6.20;;;1.65;;
25667;SDS011;18003;-33.830;151.202;2023-04-03T03:32:21;5.45;;;1.70;;
25667;SDS011;18003;-33.830;151.202;2023-04-03T03:34:52;5.67;;;1.60;;
25667;SDS011;18003;-33.830;151.202;2023-04-03T03:37:22;5.58;;;1.80;;
25667;SDS011;18003;-33.830;151.202;2023-04-03T03:39:52;6.03;;;1.65;;
25667;SDS011;18003;-33.830;151.202;2023-04-03T03:42:22;6.15;;;1.80;;
25667;SDS011;18003;-33.830;151.202;2023-04-03T03:44:52;6.90;;;1.62;;
25667;SDS011;18003;-33.830;151.202;2023-04-03T03:47:22;10.15;;;2.10;;
25667;SDS011;18003;-33.830;151.202;2023-04-03T03:49:52;10.80;;;2.20;;
25667;SDS011;18003;-33.830;151.202;2023-04-03T03:52:22;7.85;;;1.90;;
25667;SDS011;18003;-33.830;151.202;2023-04-03T03:54:52;6.47;;;1.60;;
25667;SDS011;18003;-33.830;151.202;2023-04-03T03:57:22;8.28;;;2.20;;
25667;SDS011;18003;-33.830;151.202;2023-04-03T03:59:54;4.25;;;1.57;;
25667;SDS011;18003;-33.830;151.202;2023-04-03T04:02:23;6.65;;;1.45;;
25667;SDS011;18003;-33.830;151.202;2023-04-03T04:04:54;4.70;;;1.62;;
25667;SDS011;18003;-33.830;151.202;2023-04-03T04:07:24;7.72;;;1.60;;
25667;SDS011;18003;-33.830;151.202;2023-04-03T04:09:55;5.30;;;1.80;;
25667;SDS011;18003;-33.830;151.202;2023-04-03T04:12:25;8.03;;;2.10;;
25667;SDS011;18003;-33.830;151.202;2023-04-03T04:14:55;4.80;;;1.80;;
25667;SDS011;18003;-33.830;151.202;2023-04-03T04:17:25;5.60;;;1.70;;
25667;SDS011;18003;-33.830;151.202;2023-04-03T04:19:56;8.28;;;1.72;;
25667;SDS011;18003;-33.830;151.202;2023-04-03T04:22:26;6.75;;;1.60;;
25667;SDS011;18003;-33.830;151.202;2023-04-03T04:24:56;7.20;;;1.90;;
25667;SDS011;18003;-33.830;151.202;2023-04-03T04:27:26;5.30;;;1.70;;
25667;SDS011;18003;-33.830;151.202;2023-04-03T04:29:56;6.83;;;1.80;;
25667;SDS011;18003;-33.830;151.202;2023-04-03T04:32:26;5.33;;;1.70;;
25667;SDS011;18003;-33.830;151.202;2023-04-03T04:34:56;5.95;;;1.60;;
25667;SDS011;18003;-33.830;151.202;2023-04-03T04:37:27;5.67;;;1.80;;
25667;SDS011;18003;-33.830;151.202;2023-04-03T04:39:58;4.85;;;1.82;;
25667;SDS011;18003;-33.830;151.202;2023-04-03T04:42:28;7.75;;;1.85;;
25667;SDS011;18003;-33.830;151.202;2023-04-03T04:44:58;4.37;;;1.57;;
25667;SDS011;18003;-33.830;151.202;2023-04-03T04:47:28;6.58;;;1.77;;
25667;SDS011;18003;-33.830;151.202;2023-04-03T04:49:58;4.90;;;1.70;;
25667;SDS011;18003;-33.830;151.202;2023-04-03T04:52:28;6.62;;;1.70;;
25667;SDS011;18003;-33.830;151.202;2023-04-03T04:54:58;5.97;;;1.30;;
25667;SDS011;18003;-33.830;151.202;2023-04-03T04:57:28;7.42;;;1.75;;
25667;SDS011;18003;-33.830;151.202;2023-04-03T04:59:58;5.45;;;1.65;;
25667;SDS011;18003;-33.830;151.202;2023-04-03T05:02:29;5.70;;;1.60;;
25667;SDS011;18003;-33.830;151.202;2023-04-03T05:04:59;7.45;;;1.92;;
25667;SDS011;18003;-33.830;151.202;2023-04-03T05:07:29;5.20;;;1.80;;
25667;SDS011;18003;-33.830;151.202;2023-04-03T05:09:59;4.53;;;1.57;;
25667;SDS011;18003;-33.830;151.202;2023-04-03T05:12:30;6.30;;;1.77;;
25667;SDS011;18003;-33.830;151.202;2023-04-03T05:15:00;6.15;;;1.95;;
25667;SDS011;18003;-33.830;151.202;2023-04-03T05:17:30;6.55;;;1.77;;
25667;SDS011;18003;-33.830;151.202;2023-04-03T05:20:00;5.58;;;1.50;;
25667;SDS011;18003;-33.830;151.202;2023-04-03T05:22:31;4.75;;;1.67;;
25667;SDS011;18003;-33.830;151.202;2023-04-03T05:25:01;5.80;;;1.90;;
25667;SDS011;18003;-33.830;151.202;2023-04-03T05:27:31;4.37;;;1.40;;
25667;SDS011;18003;-33.830;151.202;2023-04-03T05:30:01;6.25;;;2.10;;
25667;SDS011;18003;-33.830;151.202;2023-04-03T05:32:31;7.42;;;1.98;;
25667;SDS011;18003;-33.830;151.202;2023-04-03T05:35:02;6.40;;;1.60;;
25667;SDS011;18003;-33.830;151.202;2023-04-03T05:37:33;5.97;;;1.82;;
25667;SDS011;18003;-33.830;151.202;2023-04-03T05:40:05;5.87;;;1.40;;
25667;SDS011;18003;-33.830;151.202;2023-04-03T05:42:36;5.67;;;1.60;;
25667;SDS011;18003;-33.830;151.202;2023-04-03T05:45:06;5.47;;;1.80;;
25667;SDS011;18003;-33.830;151.202;2023-04-03T05:47:36;8.23;;;1.80;;
25667;SDS011;18003;-33.830;151.202;2023-04-03T05:50:07;4.58;;;1.55;;
25667;SDS011;18003;-33.830;151.202;2023-04-03T05:52:39;5.55;;;2.00;;
25667;SDS011;18003;-33.830;151.202;2023-04-03T05:55:10;6.78;;;2.08;;
25667;SDS011;18003;-33.830;151.202;2023-04-03T05:57:40;5.78;;;2.02;;
25667;SDS011;18003;-33.830;151.202;2023-04-03T06:00:12;5.50;;;1.90;;
25667;SDS011;18003;-33.830;151.202;2023-04-03T06:02:43;4.60;;;1.70;;
25667;SDS011;18003;-33.830;151.202;2023-04-03T06:05:13;5.70;;;1.70;;
25667;SDS011;18003;-33.830;151.202;2023-04-03T06:07:43;5.83;;;1.77;;
25667;SDS011;18003;-33.830;151.202;2023-04-03T06:10:15;3.85;;;1.70;;
25667;SDS011;18003;-33.830;151.202;2023-04-03T06:12:45;5.15;;;1.60;;
25667;SDS011;18003;-33.830;151.202;2023-04-03T06:15:15;4.70;;;1.67;;
25667;SDS011;18003;-33.830;151.202;2023-04-03T06:17:45;4.22;;;1.47;;
25667;SDS011;18003;-33.830;151.202;2023-04-03T06:20:15;4.50;;;1.60;;
25667;SDS011;18003;-33.830;151.202;2023-04-03T06:22:45;8.10;;;2.00;;
25667;SDS011;18003;-33.830;151.202;2023-04-03T06:25:15;4.65;;;1.60;;
25667;SDS011;18003;-33.830;151.202;2023-04-03T06:27:45;6.37;;;1.82;;
25667;SDS011;18003;-33.830;151.202;2023-04-03T06:30:15;7.80;;;2.10;;
25667;SDS011;18003;-33.830;151.202;2023-04-03T06:32:45;8.80;;;2.00;;
25667;SDS011;18003;-33.830;151.202;2023-04-03T06:35:15;5.30;;;1.80;;
25667;SDS011;18003;-33.830;151.202;2023-04-03T06:37:45;6.17;;;2.10;;
25667;SDS011;18003;-33.830;151.202;2023-04-03T06:40:18;5.72;;;2.27;;
25667;SDS011;18003;-33.830;151.202;2023-04-03T06:42:49;8.18;;;1.98;;
25667;SDS011;18003;-33.830;151.202;2023-04-03T06:45:19;5.15;;;1.67;;
25667;SDS011;18003;-33.830;151.202;2023-04-03T06:47:48;4.37;;;1.60;;
25667;SDS011;18003;-33.830;151.202;2023-04-03T06:50:19;4.58;;;1.65;;
25667;SDS011;18003;-33.830;151.202;2023-04-03T06:52:49;5.20;;;1.95;;
25667;SDS011;18003;-33.830;151.202;2023-04-03T06:55:19;5.40;;;1.80;;
25667;SDS011;18003;-33.830;151.202;2023-04-03T06:57:49;5.17;;;1.60;;
25667;SDS011;18003;-33.830;151.202;2023-04-03T07:00:19;10.30;;;2.37;;
25667;SDS011;18003;-33.830;151.202;2023-04-03T07:02:49;6.20;;;1.98;;
25667;SDS011;18003;-33.830;151.202;2023-04-03T07:05:20;8.40;;;2.00;;
25667;SDS011;18003;-33.830;151.202;2023-04-03T07:07:50;7.75;;;1.75;;
25667;SDS011;18003;-33.830;151.202;2023-04-03T07:10:20;5.03;;;1.90;;
25667;SDS011;18003;-33.830;151.202;2023-04-03T07:12:50;6.83;;;1.92;;
25667;SDS011;18003;-33.830;151.202;2023-04-03T07:15:20;6.55;;;2.77;;
25667;SDS011;18003;-33.830;151.202;2023-04-03T07:17:51;5.90;;;2.40;;
25667;SDS011;18003;-33.830;151.202;2023-04-03T07:20:22;3.85;;;1.80;;
25667;SDS011;18003;-33.830;151.202;2023-04-03T07:22:52;3.42;;;1.80;;
25667;SDS011;18003;-33.830;151.202;2023-04-03T07:25:22;8.23;;;1.95;;
25667;SDS011;18003;-33.830;151.202;2023-04-03T07:27:52;8.63;;;1.67;;
25667;SDS011;18003;-33.830;151.202;2023-04-03T07:30:22;7.47;;;1.87;;
25667;SDS011;18003;-33.830;151.202;2023-04-03T07:32:52;5.35;;;1.40;;
25667;SDS011;18003;-33.830;151.202;2023-04-03T07:35:22;3.70;;;1.62;;
25667;SDS011;18003;-33.830;151.202;2023-04-03T07:37:52;7.85;;;1.90;;
25667;SDS011;18003;-33.830;151.202;2023-04-03T07:40:22;7.47;;;1.90;;
25667;SDS011;18003;-33.830;151.202;2023-04-03T07:42:53;6.95;;;1.80;;
25667;SDS011;18003;-33.830;151.202;2023-04-03T07:45:24;4.17;;;1.77;;
25667;SDS011;18003;-33.830;151.202;2023-04-03T07:47:54;5.65;;;1.80;;
25667;SDS011;18003;-33.830;151.202;2023-04-03T07:50:24;6.08;;;1.80;;
25667;SDS011;18003;-33.830;151.202;2023-04-03T07:52:54;5.67;;;1.90;;
25667;SDS011;18003;-33.830;151.202;2023-04-03T07:55:24;6.00;;;1.85;;
25667;SDS011;18003;-33.830;151.202;2023-04-03T07:57:54;5.00;;;1.55;;
25667;SDS011;18003;-33.830;151.202;2023-04-03T08:00:25;4.28;;;1.75;;
25667;SDS011;18003;-33.830;151.202;2023-04-03T08:02:55;5.60;;;1.50;;
25667;SDS011;18003;-33.830;151.202;2023-04-03T08:05:25;6.90;;;2.00;;
25667;SDS011;18003;-33.830;151.202;2023-04-03T08:07:55;5.45;;;1.70;;
25667;SDS011;18003;-33.830;151.202;2023-04-03T08:10:25;5.12;;;1.62;;
25667;SDS011;18003;-33.830;151.202;2023-04-03T08:12:55;5.70;;;1.80;;
25667;SDS011;18003;-33.830;151.202;2023-04-03T08:15:25;7.12;;;1.80;;
25667;SDS011;18003;-33.830;151.202;2023-04-03T08:17:55;8.28;;;2.00;;
25667;SDS011;18003;-33.830;151.202;2023-04-03T08:20:25;7.00;;;1.75;;
25667;SDS011;18003;-33.830;151.202;2023-04-03T08:22:55;7.58;;;2.10;;
25667;SDS011;18003;-33.830;151.202;2023-04-03T08:25:25;4.62;;;1.70;;
25667;SDS011;18003;-33.830;151.202;2023-04-03T08:27:56;7.53;;;2.00;;
25667;SDS011;18003;-33.830;151.202;2023-04-03T08:30:26;4.65;;;1.70;;
25667;SDS011;18003;-33.830;151.202;2023-04-03T08:32:56;5.58;;;1.80;;
25667;SDS011;18003;-33.830;151.202;2023-04-03T08:35:27;5.53;;;1.50;;
25667;SDS011;18003;-33.830;151.202;2023-04-03T08:37:57;6.22;;;1.60;;
25667;SDS011;18003;-33.830;151.202;2023-04-03T08:40:27;6.40;;;1.90;;
25667;SDS011;18003;-33.830;151.202;2023-04-03T08:43:05;7.62;;;2.30;;
25667;SDS011;18003;-33.830;151.202;2023-04-03T08:45:53;4.30;;;1.62;;
25667;SDS011;18003;-33.830;151.202;2023-04-03T08:48:33;6.35;;;1.70;;
25667;SDS011;18003;-33.830;151.202;2023-04-03T08:51:04;5.92;;;1.85;;
25667;SDS011;18003;-33.830;151.202;2023-04-03T08:53:36;5.97;;;1.60;;
25667;SDS011;18003;-33.830;151.202;2023-04-03T08:56:10;9.50;;;2.25;;
25667;SDS011;18003;-33.830;151.202;2023-04-03T08:58:52;3.90;;;1.72;;
25667;SDS011;18003;-33.830;151.202;2023-04-03T09:01:30;6.70;;;1.98;;
25667;SDS011;18003;-33.830;151.202;2023-04-03T09:04:00;6.20;;;2.00;;
25667;SDS011;18003;-33.830;151.202;2023-04-03T09:06:34;6.92;;;2.15;;
25667;SDS011;18003;-33.830;151.202;2023-04-03T09:09:13;5.00;;;1.77;;
25667;SDS011;18003;-33.830;151.202;2023-04-03T09:14:57;8.23;;;2.30;;
25667;SDS011;18003;-33.830;151.202;2023-04-03T09:17:43;4.10;;;1.80;;
25667;SDS011;18003;-33.830;151.202;2023-04-03T09:20:27;7.45;;;1.87;;
25667;SDS011;18003;-33.830;151.202;2023-04-03T09:22:56;8.43;;;2.05;;
25667;SDS011;18003;-33.830;151.202;2023-04-03T09:25:31;6.03;;;1.90;;
25667;SDS011;18003;-33.830;151.202;2023-04-03T09:28:01;5.45;;;1.85;;
25667;SDS011;18003;-33.830;151.202;2023-04-03T09:30:33;4.92;;;2.12;;
25667;SDS011;18003;-33.830;151.202;2023-04-03T09:33:04;6.17;;;2.12;;
25667;SDS011;18003;-33.830;151.202;2023-04-03T09:35:36;7.03;;;2.20;;
25667;SDS011;18003;-33.830;151.202;2023-04-03T09:40:42;6.15;;;2.10;;
25667;SDS011;18003;-33.830;151.202;2023-04-03T09:43:21;7.30;;;2.80;;
25667;SDS011;18003;-33.830;151.202;2023-04-03T09:48:56;6.85;;;3.20;;
25667;SDS011;18003;-33.830;151.202;2023-04-03T09:51:28;9.35;;;3.80;;
25667;SDS011;18003;-33.830;151.202;2023-04-03T09:53:59;9.35;;;3.55;;
25667;SDS011;18003;-33.830;151.202;2023-04-03T09:56:30;9.88;;;3.52;;
25667;SDS011;18003;-33.830;151.202;2023-04-03T10:01:39;7.97;;;2.90;;
25667;SDS011;18003;-33.830;151.202;2023-04-03T10:04:14;6.87;;;2.75;;
25667;SDS011;18003;-33.830;151.202;2023-04-03T10:06:46;6.90;;;2.62;;
25667;SDS011;18003;-33.830;151.202;2023-04-03T10:09:26;10.45;;;2.62;;
25667;SDS011;18003;-33.830;151.202;2023-04-03T10:12:05;8.35;;;2.25;;
25667;SDS011;18003;-33.830;151.202;2023-04-03T10:14:53;9.85;;;2.40;;
25667;SDS011;18003;-33.830;151.202;2023-04-03T10:20:06;6.83;;;2.40;;
25667;SDS011;18003;-33.830;151.202;2023-04-03T10:25:28;6.08;;;2.20;;
25667;SDS011;18003;-33.830;151.202;2023-04-03T10:28:10;8.50;;;2.15;;
25667;SDS011;18003;-33.830;151.202;2023-04-03T10:34:00;9.25;;;2.12;;
25667;SDS011;18003;-33.830;151.202;2023-04-03T10:36:38;6.12;;;2.02;;
25667;SDS011;18003;-33.830;151.202;2023-04-03T10:39:24;8.40;;;2.87;;
25667;SDS011;18003;-33.830;151.202;2023-04-03T10:42:04;13.13;;;2.50;;
25667;SDS011;18003;-33.830;151.202;2023-04-03T10:47:22;7.00;;;2.33;;
25667;SDS011;18003;-33.830;151.202;2023-04-03T10:53:02;10.80;;;2.15;;
25667;SDS011;18003;-33.830;151.202;2023-04-03T11:00:45;6.80;;;2.10;;
25667;SDS011;18003;-33.830;151.202;2023-04-03T11:05:57;8.50;;;2.15;;
25667;SDS011;18003;-33.830;151.202;2023-04-03T11:11:11;6.03;;;2.20;;
25667;SDS011;18003;-33.830;151.202;2023-04-03T11:13:46;8.30;;;2.40;;
25667;SDS011;18003;-33.830;151.202;2023-04-03T11:16:27;7.62;;;2.47;;
25667;SDS011;18003;-33.830;151.202;2023-04-03T11:19:02;9.43;;;2.22;;
25667;SDS011;18003;-33.830;151.202;2023-04-03T11:21:45;8.25;;;2.10;;
25667;SDS011;18003;-33.830;151.202;2023-04-03T11:24:23;9.98;;;2.55;;
25667;SDS011;18003;-33.830;151.202;2023-04-03T11:26:54;8.05;;;2.33;;
25667;SDS011;18003;-33.830;151.202;2023-04-03T11:35:01;7.17;;;1.87;;
25667;SDS011;18003;-33.830;151.202;2023-04-03T11:37:39;9.18;;;2.10;;
25667;SDS011;18003;-33.830;151.202;2023-04-03T11:42:52;7.40;;;2.22;;
25667;SDS011;18003;-33.830;151.202;2023-04-03T11:50:40;10.85;;;2.75;;
25667;SDS011;18003;-33.830;151.202;2023-04-03T11:58:21;5.65;;;2.02;;
25667;SDS011;18003;-33.830;151.202;2023-04-03T12:00:54;7.50;;;2.35;;
25667;SDS011;18003;-33.830;151.202;2023-04-03T12:16:24;7.22;;;1.70;;
25667;SDS011;18003;-33.830;151.202;2023-04-03T12:22:15;6.42;;;1.60;;
25667;SDS011;18003;-33.830;151.202;2023-04-03T12:24:48;4.90;;;1.42;;
25667;SDS011;18003;-33.830;151.202;2023-04-03T12:35:29;5.35;;;1.52;;
25667;SDS011;18003;-33.830;151.202;2023-04-03T12:38:15;6.53;;;1.70;;
25667;SDS011;18003;-33.830;151.202;2023-04-03T12:41:04;5.53;;;1.77;;
25667;SDS011;18003;-33.830;151.202;2023-04-03T12:46:36;6.87;;;1.70;;
25667;SDS011;18003;-33.830;151.202;2023-04-03T12:52:03;6.30;;;1.60;;
25667;SDS011;18003;-33.830;151.202;2023-04-03T12:54:37;8.15;;;1.70;;
25667;SDS011;18003;-33.830;151.202;2023-04-03T12:57:19;4.95;;;1.40;;
25667;SDS011;18003;-33.830;151.202;2023-04-03T12:59:40;4.78;;;1.40;;
25667;SDS011;18003;-33.830;151.202;2023-04-03T13:02:23;5.08;;;1.52;;
25667;SDS011;18003;-33.830;151.202;2023-04-03T13:05:09;6.17;;;1.70;;
25667;SDS011;18003;-33.830;151.202;2023-04-03T13:07:35;4.70;;;1.40;;
25667;SDS011;18003;-33.830;151.202;2023-04-03T13:15:30;5.12;;;1.70;;
25667;SDS011;18003;-33.830;151.202;2023-04-03T13:18:02;7.55;;;1.72;;
25667;SDS011;18003;-33.830;151.202;2023-04-03T13:20:33;7.35;;;1.70;;
25667;SDS011;18003;-33.830;151.202;2023-04-03T13:25:35;7.40;;;1.85;;
25667;SDS011;18003;-33.830;151.202;2023-04-03T13:28:07;4.33;;;1.67;;
25667;SDS011;18003;-33.830;151.202;2023-04-03T13:30:53;5.33;;;1.72;;
25667;SDS011;18003;-33.830;151.202;2023-04-03T13:33:26;8.95;;;1.82;;
25667;SDS011;18003;-33.830;151.202;2023-04-03T13:36:03;7.05;;;1.87;;
25667;SDS011;18003;-33.830;151.202;2023-04-03T13:38:30;7.70;;;1.50;;
25667;SDS011;18003;-33.830;151.202;2023-04-03T13:41:02;6.17;;;1.50;;
25667;SDS011;18003;-33.830;151.202;2023-04-03T13:43:38;6.20;;;1.47;;
25667;SDS011;18003;-33.830;151.202;2023-04-03T13:46:19;6.22;;;1.90;;
25667;SDS011;18003;-33.830;151.202;2023-04-03T13:48:43;7.22;;;1.72;;
25667;SDS011;18003;-33.830;151.202;2023-04-03T13:53:53;4.55;;;1.50;;
25667;SDS011;18003;-33.830;151.202;2023-04-03T13:56:33;4.92;;;1.60;;
25667;SDS011;18003;-33.830;151.202;2023-04-03T14:01:44;5.72;;;1.50;;
25667;SDS011;18003;-33.830;151.202;2023-04-03T14:04:20;5.05;;;1.22;;
25667;SDS011;18003;-33.830;151.202;2023-04-03T14:06:55;4.40;;;1.30;;
25667;SDS011;18003;-33.830;151.202;2023-04-03T14:09:26;4.75;;;1.42;;
25667;SDS011;18003;-33.830;151.202;2023-04-03T14:12:00;4.90;;;1.30;;
25667;SDS011;18003;-33.830;151.202;2023-04-03T14:14:34;4.40;;;1.30;;
25667;SDS011;18003;-33.830;151.202;2023-04-03T14:17:16;3.22;;;1.30;;
25667;SDS011;18003;-33.830;151.202;2023-04-03T14:19:47;6.65;;;1.50;;
25667;SDS011;18003;-33.830;151.202;2023-04-03T14:22:19;2.67;;;1.20;;
25667;SDS011;18003;-33.830;151.202;2023-04-03T14:24:50;6.00;;;1.57;;
25667;SDS011;18003;-33.830;151.202;2023-04-03T14:27:24;4.55;;;1.40;;
25667;SDS011;18003;-33.830;151.202;2023-04-03T14:29:55;6.35;;;1.67;;
25667;SDS011;18003;-33.830;151.202;2023-04-03T14:32:26;2.35;;;1.25;;
25667;SDS011;18003;-33.830;151.202;2023-04-03T14:34:56;6.78;;;2.12;;
25667;SDS011;18003;-33.830;151.202;2023-04-03T14:37:27;4.67;;;1.50;;
25667;SDS011;18003;-33.830;151.202;2023-04-03T14:39:59;5.92;;;1.47;;
25667;SDS011;18003;-33.830;151.202;2023-04-03T14:42:31;5.90;;;1.45;;
25667;SDS011;18003;-33.830;151.202;2023-04-03T14:45:04;3.75;;;1.10;;
25667;SDS011;18003;-33.830;151.202;2023-04-03T14:47:34;4.55;;;1.30;;
25667;SDS011;18003;-33.830;151.202;2023-04-03T14:50:06;4.83;;;1.30;;
25667;SDS011;18003;-33.830;151.202;2023-04-03T14:52:38;4.25;;;1.40;;
25667;SDS011;18003;-33.830;151.202;2023-04-03T14:55:08;3.80;;;1.42;;
25667;SDS011;18003;-33.830;151.202;2023-04-03T14:57:39;6.42;;;1.70;;
25667;SDS011;18003;-33.830;151.202;2023-04-03T15:00:17;4.30;;;1.30;;
25667;SDS011;18003;-33.830;151.202;2023-04-03T15:02:48;7.10;;;1.55;;
25667;SDS011;18003;-33.830;151.202;2023-04-03T15:05:18;7.78;;;1.50;;
25667;SDS011;18003;-33.830;151.202;2023-04-03T15:07:54;5.62;;;1.37;;
25667;SDS011;18003;-33.830;151.202;2023-04-03T15:10:24;4.60;;;1.40;;
25667;SDS011;18003;-33.830;151.202;2023-04-03T15:12:55;4.78;;;1.55;;
25667;SDS011;18003;-33.830;151.202;2023-04-03T15:15:27;3.53;;;1.20;;
25667;SDS011;18003;-33.830;151.202;2023-04-03T15:17:57;4.62;;;1.42;;
25667;SDS011;18003;-33.830;151.202;2023-04-03T15:20:27;5.35;;;1.47;;
25667;SDS011;18003;-33.830;151.202;2023-04-03T15:25:31;7.12;;;1.40;;
25667;SDS011;18003;-33.830;151.202;2023-04-03T15:28:01;6.42;;;1.60;;
25667;SDS011;18003;-33.830;151.202;2023-04-03T15:30:31;4.33;;;1.30;;
25667;SDS011;18003;-33.830;151.202;2023-04-03T15:33:02;4.72;;;1.27;;
25667;SDS011;18003;-33.830;151.202;2023-04-03T15:35:32;5.35;;;1.62;;
25667;SDS011;18003;-33.830;151.202;2023-04-03T15:38:02;5.65;;;1.55;;
25667;SDS011;18003;-33.830;151.202;2023-04-03T15:40:32;4.45;;;1.45;;
25667;SDS011;18003;-33.830;151.202;2023-04-03T15:43:02;6.90;;;1.47;;
25667;SDS011;18003;-33.830;151.202;2023-04-03T15:48:03;5.35;;;1.42;;
25667;SDS011;18003;-33.830;151.202;2023-04-03T15:50:34;5.60;;;1.20;;
25667;SDS011;18003;-33.830;151.202;2023-04-03T15:53:04;6.00;;;1.45;;
25667;SDS011;18003;-33.830;151.202;2023-04-03T15:55:34;6.53;;;1.35;;
25667;SDS011;18003;-33.830;151.202;2023-04-03T15:58:05;7.03;;;1.62;;
25667;SDS011;18003;-33.830;151.202;2023-04-03T16:00:36;3.70;;;1.35;;
25667;SDS011;18003;-33.830;151.202;2023-04-03T16:03:12;7.25;;;1.60;;
25667;SDS011;18003;-33.830;151.202;2023-04-03T16:05:39;5.47;;;1.20;;
25667;SDS011;18003;-33.830;151.202;2023-04-03T16:08:09;4.67;;;1.30;;
25667;SDS011;18003;-33.830;151.202;2023-04-03T16:10:39;6.30;;;2.20;;
25667;SDS011;18003;-33.830;151.202;2023-04-03T16:13:10;6.12;;;1.37;;
25667;SDS011;18003;-33.830;151.202;2023-04-03T16:15:40;7.03;;;1.40;;
25667;SDS011;18003;-33.830;151.202;2023-04-03T16:18:10;3.33;;;1.25;;
25667;SDS011;18003;-33.830;151.202;2023-04-03T16:20:41;6.03;;;1.77;;
25667;SDS011;18003;-33.830;151.202;2023-04-03T16:23:11;3.83;;;1.35;;
25667;SDS011;18003;-33.830;151.202;2023-04-03T16:25:41;3.58;;;1.50;;